sensor_id;sensor_type;location;lat;lon;timestamp;pressure;altitude;pressure_sealevel;temperature
70969;BMP280;58630;43.022;25.100;2023-02-28T00:01:30;100102.31;;;14.92
70969;BMP280;58630;43.022;25.100;2023-02-28T00:03:55;100115.69;;;14.90
70969;BMP280;58630;43.022;25.100;2023-02-28T00:06:21;100115.69;;;14.90
70969;BMP280;58630;43.022;25.100;2023-02-28T00:08:46;100127.97;;;14.90
70969;BMP280;58630;43.022;25.100;2023-02-28T00:11:13;100129.81;;;14.89
70969;BMP280;58630;43.022;25.100;2023-02-28T00:13:39;100131.66;;;14.89
70969;BMP280;58630;43.022;25.100;2023-02-28T00:16:06;100120.66;;;14.87
70969;BMP280;58630;43.022;25.100;2023-02-28T00:18:32;100120.66;;;14.87
70969;BMP280;58630;43.022;25.100;2023-02-28T00:20:58;100124.31;;;14.86
70969;BMP280;58630;43.022;25.100;2023-02-28T00:23:23;100118.28;;;14.85
70969;BMP280;58630;43.022;25.100;2023-02-28T00:25:48;100123.00;;;14.83
70969;BMP280;58630;43.022;25.100;2023-02-28T00:28:14;100132.72;;;14.83
70969;BMP280;58630;43.022;25.100;2023-02-28T00:30:39;100129.06;;;14.84
70969;BMP280;58630;43.022;25.100;2023-02-28T00:33:04;100133.75;;;14.82
70969;BMP280;58630;43.022;25.100;2023-02-28T00:35:30;100132.94;;;14.81
70969;BMP280;58630;43.022;25.100;2023-02-28T00:37:55;100140.03;;;14.81
70969;BMP280;58630;43.022;25.100;2023-02-28T00:40:20;100132.41;;;14.79
70969;BMP280;58630;43.022;25.100;2023-02-28T00:42:46;100125.38;;;14.80
70969;BMP280;58630;43.022;25.100;2023-02-28T00:45:11;100130.59;;;14.80
70969;BMP280;58630;43.022;25.100;2023-02-28T00:47:36;100127.50;;;14.78
70969;BMP280;58630;43.022;25.100;2023-02-28T00:50:02;100126.97;;;14.76
70969;BMP280;58630;43.022;25.100;2023-02-28T00:52:27;100118.06;;;14.77
70969;BMP280;58630;43.022;25.100;2023-02-28T00:54:53;100120.69;;;14.77
70969;BMP280;58630;43.022;25.100;2023-02-28T00:57:18;100116.78;;;14.74
70969;BMP280;58630;43.022;25.100;2023-02-28T00:59:43;100117.53;;;14.75
70969;BMP280;58630;43.022;25.100;2023-02-28T01:02:09;100112.59;;;14.73
70969;BMP280;58630;43.022;25.100;2023-02-28T01:04:34;100122.28;;;14.73
70969;BMP280;58630;43.022;25.100;2023-02-28T01:06:59;100123.81;;;14.74
70969;BMP280;58630;43.022;25.100;2023-02-28T01:09:24;100118.09;;;14.72
70969;BMP280;58630;43.022;25.100;2023-02-28T01:11:50;100116.50;;;14.71
70969;BMP280;58630;43.022;25.100;2023-02-28T01:14:15;100110.75;;;14.69
70969;BMP280;58630;43.022;25.100;2023-02-28T01:16:41;100120.44;;;14.68
70969;BMP280;58630;43.022;25.100;2023-02-28T01:19:07;100118.59;;;14.69
70969;BMP280;58630;43.022;25.100;2023-02-28T01:21:32;100110.25;;;14.67
70969;BMP280;58630;43.022;25.100;2023-02-28T01:23:59;100102.41;;;14.67
70969;BMP280;58630;43.022;25.100;2023-02-28T01:26:25;100116.53;;;14.66
70969;BMP280;58630;43.022;25.100;2023-02-28T01:28:51;100113.91;;;14.66
70969;BMP280;58630;43.022;25.100;2023-02-28T01:31:16;100119.16;;;14.66
70969;BMP280;58630;43.022;25.100;2023-02-28T01:33:43;100116.78;;;14.64
70969;BMP280;58630;43.022;25.100;2023-02-28T01:36:12;100119.69;;;14.63
70969;BMP280;58630;43.022;25.100;2023-02-28T01:38:38;100116.00;;;14.64
70969;BMP280;58630;43.022;25.100;2023-02-28T01:41:04;100113.38;;;14.64
70969;BMP280;58630;43.022;25.100;2023-02-28T01:46:16;100123.38;;;14.62
70969;BMP280;58630;43.022;25.100;2023-02-28T01:51:23;100128.06;;;14.60
70969;BMP280;58630;43.022;25.100;2023-02-28T01:53:52;100130.16;;;14.58
70969;BMP280;58630;43.022;25.100;2023-02-28T01:56:19;100131.19;;;14.57
70969;BMP280;58630;43.022;25.100;2023-02-28T01:58:50;100135.66;;;14.56
70969;BMP280;58630;43.022;25.100;2023-02-28T02:01:16;100139.31;;;14.55
70969;BMP280;58630;43.022;25.100;2023-02-28T02:03:56;100157.09;;;14.53
70969;BMP280;58630;43.022;25.100;2023-02-28T02:06:23;100154.75;;;14.52
70969;BMP280;58630;43.022;25.100;2023-02-28T02:08:49;100169.63;;;14.51
70969;BMP280;58630;43.022;25.100;2023-02-28T02:11:16;100167.31;;;14.50
70969;BMP280;58630;43.022;25.100;2023-02-28T02:16:34;100164.19;;;14.48
70969;BMP280;58630;43.022;25.100;2023-02-28T02:27:02;100174.09;;;14.46
70969;BMP280;58630;43.022;25.100;2023-02-28T02:42:23;100154.75;;;14.42
70969;BMP280;58630;43.022;25.100;2023-02-28T02:45:01;100154.75;;;14.42
70969;BMP280;58630;43.022;25.100;2023-02-28T02:47:29;100144.31;;;14.42
70969;BMP280;58630;43.022;25.100;2023-02-28T02:49:56;100130.69;;;14.40
70969;BMP280;58630;43.022;25.100;2023-02-28T02:52:24;100118.69;;;14.39
70969;BMP280;58630;43.022;25.100;2023-02-28T02:54:52;100116.88;;;14.40
70969;BMP280;58630;43.022;25.100;2023-02-28T02:57:27;100124.72;;;14.40
70969;BMP280;58630;43.022;25.100;2023-02-28T02:59:54;100116.09;;;14.39
70969;BMP280;58630;43.022;25.100;2023-02-28T03:02:21;100116.34;;;14.38
70969;BMP280;58630;43.022;25.100;2023-02-28T03:04:54;100111.13;;;14.38
70969;BMP280;58630;43.022;25.100;2023-02-28T03:07:20;100114.78;;;14.37
70969;BMP280;58630;43.022;25.100;2023-02-28T03:09:52;100104.31;;;14.37
70969;BMP280;58630;43.022;25.100;2023-02-28T03:12:18;100100.91;;;14.36
70969;BMP280;58630;43.022;25.100;2023-02-28T03:17:24;100103.00;;;14.34
70969;BMP280;58630;43.022;25.100;2023-02-28T03:22:46;100101.44;;;14.33
70969;BMP280;58630;43.022;25.100;2023-02-28T03:33:01;100112.44;;;14.30
70969;BMP280;58630;43.022;25.100;2023-02-28T03:35:40;100118.72;;;14.29
70969;BMP280;58630;43.022;25.100;2023-02-28T03:38:08;100130.22;;;14.28
70969;BMP280;58630;43.022;25.100;2023-02-28T03:40:39;100130.22;;;14.28
70969;BMP280;58630;43.022;25.100;2023-02-28T03:43:08;100127.59;;;14.28
70969;BMP280;58630;43.022;25.100;2023-02-28T03:45:35;100113.75;;;14.28
70969;BMP280;58630;43.022;25.100;2023-02-28T03:48:02;100126.06;;;14.27
70969;BMP280;58630;43.022;25.100;2023-02-28T03:50:35;100137.28;;;14.28
70969;BMP280;58630;43.022;25.100;2023-02-28T03:53:04;100139.13;;;14.27
70969;BMP280;58630;43.022;25.100;2023-02-28T03:55:37;100135.72;;;14.27
70969;BMP280;58630;43.022;25.100;2023-02-28T04:00:37;100138.59;;;14.25
70969;BMP280;58630;43.022;25.100;2023-02-28T04:03:03;100142.25;;;14.24
70969;BMP280;58630;43.022;25.100;2023-02-28T04:05:28;100150.09;;;14.24
70969;BMP280;58630;43.022;25.100;2023-02-28T04:07:54;100153.75;;;14.23
70969;BMP280;58630;43.022;25.100;2023-02-28T04:10:28;100156.34;;;14.23
70969;BMP280;58630;43.022;25.100;2023-02-28T04:12:53;100146.94;;;14.22
70969;BMP280;58630;43.022;25.100;2023-02-28T04:15:18;100154.78;;;14.22
70969;BMP280;58630;43.022;25.100;2023-02-28T04:17:47;100150.63;;;14.21
70969;BMP280;58630;43.022;25.100;2023-02-28T04:20:12;100147.22;;;14.21
70969;BMP280;58630;43.022;25.100;2023-02-28T04:22:38;100148.25;;;14.20
70969;BMP280;58630;43.022;25.100;2023-02-28T04:25:03;100158.69;;;14.20
70969;BMP280;58630;43.022;25.100;2023-02-28T04:27:29;100155.56;;;14.18
70969;BMP280;58630;43.022;25.100;2023-02-28T04:29:54;100162.34;;;14.19
70969;BMP280;58630;43.022;25.100;2023-02-28T04:32:19;100157.41;;;14.17
70969;BMP280;58630;43.022;25.100;2023-02-28T04:34:45;100159.22;;;14.17
70969;BMP280;58630;43.022;25.100;2023-02-28T04:37:10;100156.59;;;14.17
70969;BMP280;58630;43.022;25.100;2023-02-28T04:39:36;100154.28;;;14.15
70969;BMP280;58630;43.022;25.100;2023-02-28T04:42:01;100151.66;;;14.15
70969;BMP280;58630;43.022;25.100;2023-02-28T04:44:27;100159.78;;;14.14
70969;BMP280;58630;43.022;25.100;2023-02-28T04:46:52;100162.38;;;14.14
70969;BMP280;58630;43.022;25.100;2023-02-28T04:49:17;100156.34;;;14.13
70969;BMP280;58630;43.022;25.100;2023-02-28T04:51:42;100160.00;;;14.12
70969;BMP280;58630;43.022;25.100;2023-02-28T04:54:08;100154.78;;;14.12
70969;BMP280;58630;43.022;25.100;2023-02-28T04:56:33;100171.25;;;14.13
70969;BMP280;58630;43.022;25.100;2023-02-28T04:58:58;100158.44;;;14.11
70969;BMP280;58630;43.022;25.100;2023-02-28T05:01:27;100172.56;;;14.10
70969;BMP280;58630;43.022;25.100;2023-02-28T05:03:54;100160.53;;;14.09
70969;BMP280;58630;43.022;25.100;2023-02-28T05:06:20;100171.00;;;14.09
70969;BMP280;58630;43.022;25.100;2023-02-28T05:08:46;100163.44;;;14.08
70969;BMP280;58630;43.022;25.100;2023-02-28T05:11:14;100171.00;;;14.09
70969;BMP280;58630;43.022;25.100;2023-02-28T05:13:39;100172.31;;;14.07
70969;BMP280;58630;43.022;25.100;2023-02-28T05:16:05;100170.72;;;14.06
70969;BMP280;58630;43.022;25.100;2023-02-28T05:18:30;100180.16;;;14.07
70969;BMP280;58630;43.022;25.100;2023-02-28T05:20:55;100171.50;;;14.06
70969;BMP280;58630;43.022;25.100;2023-02-28T05:23:21;100181.97;;;14.06
70969;BMP280;58630;43.022;25.100;2023-02-28T05:25:47;100186.69;;;14.04
70969;BMP280;58630;43.022;25.100;2023-02-28T05:28:12;100190.84;;;14.05
70969;BMP280;58630;43.022;25.100;2023-02-28T05:30:37;100186.69;;;14.04
70969;BMP280;58630;43.022;25.100;2023-02-28T05:33:03;100192.94;;;14.03
70969;BMP280;58630;43.022;25.100;2023-02-28T05:35:28;100193.75;;;14.04
70969;BMP280;58630;43.022;25.100;2023-02-28T05:37:53;100195.56;;;14.03
70969;BMP280;58630;43.022;25.100;2023-02-28T05:40:18;100207.03;;;14.02
70969;BMP280;58630;43.022;25.100;2023-02-28T05:42:47;100212.28;;;14.02
70969;BMP280;58630;43.022;25.100;2023-02-28T05:45:12;100210.47;;;14.03
70969;BMP280;58630;43.022;25.100;2023-02-28T05:47:37;100214.88;;;14.02
70969;BMP280;58630;43.022;25.100;2023-02-28T05:50:03;100217.50;;;14.02
70969;BMP280;58630;43.022;25.100;2023-02-28T05:52:29;100219.56;;;14.00
70969;BMP280;58630;43.022;25.100;2023-02-28T05:54:57;100223.25;;;13.99
70969;BMP280;58630;43.022;25.100;2023-02-28T05:57:22;100227.69;;;13.99
70969;BMP280;58630;43.022;25.100;2023-02-28T05:59:48;100232.16;;;13.98
70969;BMP280;58630;43.022;25.100;2023-02-28T06:02:14;100237.38;;;13.98
70969;BMP280;58630;43.022;25.100;2023-02-28T06:04:40;100229.00;;;13.96
70969;BMP280;58630;43.022;25.100;2023-02-28T06:07:06;100227.16;;;13.97
70969;BMP280;58630;43.022;25.100;2023-02-28T06:09:33;100232.66;;;13.95
70969;BMP280;58630;43.022;25.100;2023-02-28T06:11:59;100232.66;;;13.95
70969;BMP280;58630;43.022;25.100;2023-02-28T06:14:24;100236.31;;;13.94
70969;BMP280;58630;43.022;25.100;2023-02-28T06:16:50;100238.13;;;13.94
70969;BMP280;58630;43.022;25.100;2023-02-28T06:19:15;100233.19;;;13.92
70969;BMP280;58630;43.022;25.100;2023-02-28T06:21:41;100236.53;;;13.93
70969;BMP280;58630;43.022;25.100;2023-02-28T06:24:06;100229.00;;;13.91
70969;BMP280;58630;43.022;25.100;2023-02-28T06:26:31;100235.00;;;13.92
70969;BMP280;58630;43.022;25.100;2023-02-28T06:28:57;100236.03;;;13.91
70969;BMP280;58630;43.022;25.100;2023-02-28T06:31:22;100240.50;;;13.90
70969;BMP280;58630;43.022;25.100;2023-02-28T06:33:48;100233.69;;;13.89
70969;BMP280;58630;43.022;25.100;2023-02-28T06:36:13;100236.84;;;13.91
70969;BMP280;58630;43.022;25.100;2023-02-28T06:38:39;100237.88;;;13.90
70969;BMP280;58630;43.022;25.100;2023-02-28T06:41:06;100225.59;;;13.91
70969;BMP280;58630;43.022;25.100;2023-02-28T06:43:33;100225.59;;;13.91
70969;BMP280;58630;43.022;25.100;2023-02-28T06:45:59;100229.78;;;13.92
70969;BMP280;58630;43.022;25.100;2023-02-28T06:48:25;100223.78;;;13.91
70969;BMP280;58630;43.022;25.100;2023-02-28T06:50:52;100222.19;;;13.90
70969;BMP280;58630;43.022;25.100;2023-02-28T06:53:17;100226.38;;;13.91
70969;BMP280;58630;43.022;25.100;2023-02-28T06:55:42;100229.00;;;13.91
70969;BMP280;58630;43.022;25.100;2023-02-28T06:58:08;100231.63;;;13.91
70969;BMP280;58630;43.022;25.100;2023-02-28T07:00:42;100226.38;;;13.91
70969;BMP280;58630;43.022;25.100;2023-02-28T07:03:08;100230.81;;;13.91
70969;BMP280;58630;43.022;25.100;2023-02-28T07:05:37;100230.28;;;13.89
70969;BMP280;58630;43.022;25.100;2023-02-28T07:08:03;100242.06;;;13.91
70969;BMP280;58630;43.022;25.100;2023-02-28T07:10:29;100250.94;;;13.90
70969;BMP280;58630;43.022;25.100;2023-02-28T07:12:54;100250.13;;;13.90
70969;BMP280;58630;43.022;25.100;2023-02-28T07:15:20;100259.00;;;13.89
70969;BMP280;58630;43.022;25.100;2023-02-28T07:17:45;100259.81;;;13.89
70969;BMP280;58630;43.022;25.100;2023-02-28T07:20:10;100259.00;;;13.89
70969;BMP280;58630;43.022;25.100;2023-02-28T07:22:36;100265.03;;;13.89
70969;BMP280;58630;43.022;25.100;2023-02-28T07:25:01;100266.06;;;13.88
70969;BMP280;58630;43.022;25.100;2023-02-28T07:27:26;100264.00;;;13.90
70969;BMP280;58630;43.022;25.100;2023-02-28T07:29:52;100266.06;;;13.88
70969;BMP280;58630;43.022;25.100;2023-02-28T07:32:18;100269.72;;;13.87
70969;BMP280;58630;43.022;25.100;2023-02-28T07:34:44;100274.69;;;13.89
70969;BMP280;58630;43.022;25.100;2023-02-28T07:37:09;100273.91;;;13.88
70969;BMP280;58630;43.022;25.100;2023-02-28T07:39:34;100273.09;;;13.88
70969;BMP280;58630;43.022;25.100;2023-02-28T07:42:00;100268.19;;;13.86
70969;BMP280;58630;43.022;25.100;2023-02-28T07:44:26;100271.31;;;13.88
70969;BMP280;58630;43.022;25.100;2023-02-28T07:46:52;100267.13;;;13.87
70969;BMP280;58630;43.022;25.100;2023-02-28T07:49:17;100279.13;;;13.88
70969;BMP280;58630;43.022;25.100;2023-02-28T07:51:43;100277.56;;;13.87
70969;BMP280;58630;43.022;25.100;2023-02-28T07:54:08;100274.94;;;13.87
70969;BMP280;58630;43.022;25.100;2023-02-28T07:56:33;100279.38;;;13.87
70969;BMP280;58630;43.022;25.100;2023-02-28T07:58:59;100280.19;;;13.87
70969;BMP280;58630;43.022;25.100;2023-02-28T08:01:24;100277.56;;;13.87
70969;BMP280;58630;43.022;25.100;2023-02-28T08:03:49;100274.94;;;13.87
70969;BMP280;58630;43.022;25.100;2023-02-28T08:06:17;100270.50;;;13.88
70969;BMP280;58630;43.022;25.100;2023-02-28T08:08:42;100280.44;;;13.86
70969;BMP280;58630;43.022;25.100;2023-02-28T08:11:09;100280.19;;;13.87
70969;BMP280;58630;43.022;25.100;2023-02-28T08:13:34;100283.84;;;13.86
70969;BMP280;58630;43.022;25.100;2023-02-28T08:16:00;100283.56;;;13.88
70969;BMP280;58630;43.022;25.100;2023-02-28T08:18:26;100281.25;;;13.86
70969;BMP280;58630;43.022;25.100;2023-02-28T08:20:51;100275.22;;;13.86
70969;BMP280;58630;43.022;25.100;2023-02-28T08:23:16;100279.66;;;13.85
70969;BMP280;58630;43.022;25.100;2023-02-28T08:25:42;100281.25;;;13.86
70969;BMP280;58630;43.022;25.100;2023-02-28T08:28:07;100298.47;;;13.87
70969;BMP280;58630;43.022;25.100;2023-02-28T08:30:32;100295.03;;;13.87
70969;BMP280;58630;43.022;25.100;2023-02-28T08:32:57;100301.34;;;13.86
70969;BMP280;58630;43.022;25.100;2023-02-28T08:35:23;100290.88;;;13.86
70969;BMP280;58630;43.022;25.100;2023-02-28T08:37:48;100288.53;;;13.84
70969;BMP280;58630;43.022;25.100;2023-02-28T08:40:14;100290.13;;;13.85
70969;BMP280;58630;43.022;25.100;2023-02-28T08:42:43;100293.75;;;13.84
70969;BMP280;58630;43.022;25.100;2023-02-28T08:45:09;100300.78;;;13.84
70969;BMP280;58630;43.022;25.100;2023-02-28T08:47:34;100301.59;;;13.84
70969;BMP280;58630;43.022;25.100;2023-02-28T08:49:59;100303.19;;;13.85
70969;BMP280;58630;43.022;25.100;2023-02-28T08:52:25;100304.22;;;13.84
70969;BMP280;58630;43.022;25.100;2023-02-28T08:54:50;100302.63;;;13.83
70969;BMP280;58630;43.022;25.100;2023-02-28T08:57:15;100301.88;;;13.83
70969;BMP280;58630;43.022;25.100;2023-02-28T08:59:40;100307.88;;;13.83
70969;BMP280;58630;43.022;25.100;2023-02-28T09:02:06;100301.59;;;13.84
70969;BMP280;58630;43.022;25.100;2023-02-28T09:04:31;100300.03;;;13.83
70969;BMP280;58630;43.022;25.100;2023-02-28T09:06:56;100305.78;;;13.85
70969;BMP280;58630;43.022;25.100;2023-02-28T09:09:21;100301.06;;;13.82
70969;BMP280;58630;43.022;25.100;2023-02-28T09:11:47;100305.25;;;13.83
70969;BMP280;58630;43.022;25.100;2023-02-28T09:14:12;100309.69;;;13.83
70969;BMP280;58630;43.022;25.100;2023-02-28T09:16:37;100312.31;;;13.83
70969;BMP280;58630;43.022;25.100;2023-02-28T09:19:03;100310.75;;;13.82
70969;BMP280;58630;43.022;25.100;2023-02-28T09:21:28;100321.97;;;13.82
70969;BMP280;58630;43.022;25.100;2023-02-28T09:23:53;100316.75;;;13.82
70969;BMP280;58630;43.022;25.100;2023-02-28T09:26:20;100326.16;;;13.83
70969;BMP280;58630;43.022;25.100;2023-02-28T09:28:46;100325.38;;;13.83
70969;BMP280;58630;43.022;25.100;2023-02-28T09:31:15;100320.38;;;13.81
70969;BMP280;58630;43.022;25.100;2023-02-28T09:33:41;100325.59;;;13.81
70969;BMP280;58630;43.022;25.100;2023-02-28T09:36:06;100319.34;;;13.82
70969;BMP280;58630;43.022;25.100;2023-02-28T09:38:32;100321.97;;;13.82
70969;BMP280;58630;43.022;25.100;2023-02-28T09:41:02;100321.97;;;13.82
70969;BMP280;58630;43.022;25.100;2023-02-28T09:43:38;100327.19;;;13.82
70969;BMP280;58630;43.022;25.100;2023-02-28T09:48:32;100320.38;;;13.81
70969;BMP280;58630;43.022;25.100;2023-02-28T09:51:04;100316.47;;;13.84
70969;BMP280;58630;43.022;25.100;2023-02-28T09:53:34;100312.31;;;13.83
70969;BMP280;58630;43.022;25.100;2023-02-28T09:56:12;100309.44;;;13.84
70969;BMP280;58630;43.022;25.100;2023-02-28T09:58:50;100309.44;;;13.84
70969;BMP280;58630;43.022;25.100;2023-02-28T10:03:56;100299.75;;;13.85
70969;BMP280;58630;43.022;25.100;2023-02-28T10:06:25;100302.88;;;13.87
70969;BMP280;58630;43.022;25.100;2023-02-28T10:11:16;100304.75;;;13.86
70969;BMP280;58630;43.022;25.100;2023-02-28T10:13:53;100303.94;;;13.86
70969;BMP280;58630;43.022;25.100;2023-02-28T10:16:31;100303.19;;;13.85
70969;BMP280;58630;43.022;25.100;2023-02-28T10:19:05;100307.38;;;13.86
70969;BMP280;58630;43.022;25.100;2023-02-28T10:21:38;100308.91;;;13.87
70969;BMP280;58630;43.022;25.100;2023-02-28T10:26:49;100300.28;;;13.87
70969;BMP280;58630;43.022;25.100;2023-02-28T10:29:17;100298.47;;;13.87
70969;BMP280;58630;43.022;25.100;2023-02-28T10:31:43;100298.47;;;13.87
70969;BMP280;58630;43.022;25.100;2023-02-28T10:34:08;100287.22;;;13.87
70969;BMP280;58630;43.022;25.100;2023-02-28T10:36:36;100281.75;;;13.88
70969;BMP280;58630;43.022;25.100;2023-02-28T10:39:02;100284.38;;;13.88
70969;BMP280;58630;43.022;25.100;2023-02-28T10:41:47;100284.38;;;13.88
70969;BMP280;58630;43.022;25.100;2023-02-28T10:44:14;100285.94;;;13.89
70969;BMP280;58630;43.022;25.100;2023-02-28T10:46:40;100282.78;;;13.87
70969;BMP280;58630;43.022;25.100;2023-02-28T10:49:11;100284.38;;;13.88
70969;BMP280;58630;43.022;25.100;2023-02-28T10:51:38;100281.25;;;13.86
70969;BMP280;58630;43.022;25.100;2023-02-28T10:54:04;100265.56;;;13.86
70969;BMP280;58630;43.022;25.100;2023-02-28T10:56:30;100274.16;;;13.87
70969;BMP280;58630;43.022;25.100;2023-02-28T11:01:26;100270.78;;;13.86
70969;BMP280;58630;43.022;25.100;2023-02-28T11:03:58;100268.19;;;13.86
70969;BMP280;58630;43.022;25.100;2023-02-28T11:06:30;100267.13;;;13.87
70969;BMP280;58630;43.022;25.100;2023-02-28T11:09:00;100272.34;;;13.87
70969;BMP280;58630;43.022;25.100;2023-02-28T11:11:27;100263.69;;;13.87
70969;BMP280;58630;43.022;25.100;2023-02-28T11:13:54;100268.19;;;13.86
70969;BMP280;58630;43.022;25.100;2023-02-28T11:16:20;100265.56;;;13.86
70969;BMP280;58630;43.022;25.100;2023-02-28T11:18:49;100265.56;;;13.86
70969;BMP280;58630;43.022;25.100;2023-02-28T11:21:16;100256.16;;;13.85
70969;BMP280;58630;43.022;25.100;2023-02-28T11:23:43;100257.19;;;13.84
70969;BMP280;58630;43.022;25.100;2023-02-28T11:26:09;100257.97;;;13.85
70969;BMP280;58630;43.022;25.100;2023-02-28T11:28:38;100251.97;;;13.84
70969;BMP280;58630;43.022;25.100;2023-02-28T11:31:05;100264.00;;;13.85
70969;BMP280;58630;43.022;25.100;2023-02-28T11:33:32;100253.53;;;13.85
70969;BMP280;58630;43.022;25.100;2023-02-28T11:36:15;100255.34;;;13.85
70969;BMP280;58630;43.022;25.100;2023-02-28T11:38:41;100252.72;;;13.85
70969;BMP280;58630;43.022;25.100;2023-02-28T11:46:11;100252.72;;;13.85
70969;BMP280;58630;43.022;25.100;2023-02-28T11:51:13;100247.50;;;13.85
70969;BMP280;58630;43.022;25.100;2023-02-28T11:53:50;100246.75;;;13.84
70969;BMP280;58630;43.022;25.100;2023-02-28T12:01:56;100235.72;;;13.77
70969;BMP280;58630;43.022;25.100;2023-02-28T12:06:56;100239.16;;;13.83
70969;BMP280;58630;43.022;25.100;2023-02-28T12:12:10;100236.78;;;13.81
70969;BMP280;58630;43.022;25.100;2023-02-28T12:27:14;100247.75;;;13.78
70969;BMP280;58630;43.022;25.100;2023-02-28T12:29:46;100243.34;;;13.79
70969;BMP280;58630;43.022;25.100;2023-02-28T12:32:14;100242.53;;;13.78
70969;BMP280;58630;43.022;25.100;2023-02-28T12:34:55;100247.75;;;13.78
70969;BMP280;58630;43.022;25.100;2023-02-28T12:37:23;100250.38;;;13.78
70969;BMP280;58630;43.022;25.100;2023-02-28T12:39:51;100241.75;;;13.78
70969;BMP280;58630;43.022;25.100;2023-02-28T12:47:14;100243.56;;;13.77
70969;BMP280;58630;43.022;25.100;2023-02-28T12:52:15;100248.78;;;13.77
70969;BMP280;58630;43.022;25.100;2023-02-28T12:54:44;100247.22;;;13.76
70969;BMP280;58630;43.022;25.100;2023-02-28T13:05:00;100240.72;;;13.74
70969;BMP280;58630;43.022;25.100;2023-02-28T13:09:59;100233.91;;;13.73
70969;BMP280;58630;43.022;25.100;2023-02-28T13:12:25;100234.16;;;13.72
70969;BMP280;58630;43.022;25.100;2023-02-28T13:14:51;100234.69;;;13.74
70969;BMP280;58630;43.022;25.100;2023-02-28T13:17:26;100239.91;;;13.74
70969;BMP280;58630;43.022;25.100;2023-02-28T13:24:46;100240.41;;;13.71
70969;BMP280;58630;43.022;25.100;2023-02-28T13:27:20;100244.06;;;13.70
70969;BMP280;58630;43.022;25.100;2023-02-28T13:29:50;100239.91;;;13.69
70969;BMP280;58630;43.022;25.100;2023-02-28T13:32:20;100231.53;;;13.72
70969;BMP280;58630;43.022;25.100;2023-02-28T13:47:39;100249.03;;;13.66
70969;BMP280;58630;43.022;25.100;2023-02-28T13:52:48;100252.69;;;13.65
70969;BMP280;58630;43.022;25.100;2023-02-28T13:55:37;100237.00;;;13.65
70969;BMP280;58630;43.022;25.100;2023-02-28T14:08:36;100223.69;;;13.62
70969;BMP280;58630;43.022;25.100;2023-02-28T14:11:06;100233.84;;;13.63
70969;BMP280;58630;43.022;25.100;2023-02-28T14:16:09;100235.19;;;13.61
70969;BMP280;58630;43.022;25.100;2023-02-28T14:18:40;100235.72;;;13.63
70969;BMP280;58630;43.022;25.100;2023-02-28T14:21:11;100250.84;;;13.61
70969;BMP280;58630;43.022;25.100;2023-02-28T14:29:14;100248.47;;;13.59
70969;BMP280;58630;43.022;25.100;2023-02-28T14:31:44;100254.50;;;13.60
70969;BMP280;58630;43.022;25.100;2023-02-28T14:36:39;100255.53;;;13.59
70969;BMP280;58630;43.022;25.100;2023-02-28T14:39:06;100257.59;;;13.57
70969;BMP280;58630;43.022;25.100;2023-02-28T14:41:33;100254.22;;;13.56
70969;BMP280;58630;43.022;25.100;2023-02-28T14:44:13;100256.81;;;13.56
70969;BMP280;58630;43.022;25.100;2023-02-28T14:46:39;100267.53;;;13.55
70969;BMP280;58630;43.022;25.100;2023-02-28T14:49:05;100259.44;;;13.56
70969;BMP280;58630;43.022;25.100;2023-02-28T14:51:32;100260.72;;;13.54
70969;BMP280;58630;43.022;25.100;2023-02-28T14:53:59;100259.94;;;13.53
70969;BMP280;58630;43.022;25.100;2023-02-28T14:56:35;100260.72;;;13.54
70969;BMP280;58630;43.022;25.100;2023-02-28T14:59:02;100264.38;;;13.53
70969;BMP280;58630;43.022;25.100;2023-02-28T15:01:27;100259.69;;;13.55
70969;BMP280;58630;43.022;25.100;2023-02-28T15:04:05;100263.56;;;13.52
70969;BMP280;58630;43.022;25.100;2023-02-28T15:06:31;100270.63;;;13.52
70969;BMP280;58630;43.022;25.100;2023-02-28T15:09:11;100263.84;;;13.51
70969;BMP280;58630;43.022;25.100;2023-02-28T15:11:38;100262.28;;;13.50
70969;BMP280;58630;43.022;25.100;2023-02-28T15:14:04;100261.22;;;13.51
70969;BMP280;58630;43.022;25.100;2023-02-28T15:16:31;100267.50;;;13.50
70969;BMP280;58630;43.022;25.100;2023-02-28T15:18:59;100260.72;;;13.49
70969;BMP280;58630;43.022;25.100;2023-02-28T15:21:26;100265.94;;;13.49
70969;BMP280;58630;43.022;25.100;2023-02-28T15:26:31;100266.19;;;13.47
70969;BMP280;58630;43.022;25.100;2023-02-28T15:29:08;100264.63;;;13.46
70969;BMP280;58630;43.022;25.100;2023-02-28T15:31:40;100258.59;;;13.46
70969;BMP280;58630;43.022;25.100;2023-02-28T15:34:06;100270.63;;;13.47
70969;BMP280;58630;43.022;25.100;2023-02-28T15:36:33;100271.13;;;13.44
70969;BMP280;58630;43.022;25.100;2023-02-28T15:39:02;100265.91;;;13.44
70969;BMP280;58630;43.022;25.100;2023-02-28T15:41:35;100269.56;;;13.43
70969;BMP280;58630;43.022;25.100;2023-02-28T15:47:01;100262.22;;;13.40
70969;BMP280;58630;43.022;25.100;2023-02-28T15:49:28;100253.59;;;13.39
70969;BMP280;58630;43.022;25.100;2023-02-28T15:51:53;100259.88;;;13.38
70969;BMP280;58630;43.022;25.100;2023-02-28T15:54:24;100256.47;;;13.38
70969;BMP280;58630;43.022;25.100;2023-02-28T15:56:52;100264.31;;;13.38
70969;BMP280;58630;43.022;25.100;2023-02-28T15:59:25;100269.53;;;13.38
70969;BMP280;58630;43.022;25.100;2023-02-28T16:04:35;100272.41;;;13.36
70969;BMP280;58630;43.022;25.100;2023-02-28T16:07:02;100270.06;;;13.35
70969;BMP280;58630;43.022;25.100;2023-02-28T16:09:28;100277.88;;;13.35
70969;BMP280;58630;43.022;25.100;2023-02-28T16:11:55;100275.50;;;13.33
70969;BMP280;58630;43.022;25.100;2023-02-28T16:14:23;100282.56;;;13.33
70969;BMP280;58630;43.022;25.100;2023-02-28T16:16:49;100284.38;;;13.32
70969;BMP280;58630;43.022;25.100;2023-02-28T16:19:16;100283.63;;;13.32
70969;BMP280;58630;43.022;25.100;2023-02-28T16:21:42;100284.38;;;13.32